Latest Coastal Weather Observations for Cape Otway

IDT60701

Issued at 9:15 pm EST Thursday 24 April 2014 (issued every 10 minutes, with the page automatically refreshed every 10 minutes)

About coastal observations | Map of coastal stations | Coastal observations for TAS | Marine services | Other Formats
Station Details ID: 090015 Name: CAPE OTWAY LIGHTHOUSE Lat: -38.86 Lon: 143.51 Height: 82.0 m
Data from the previous 72 hours. | See also: Recent months at Cape Otway
Date/Time
EST
Temp

°C
Wind Pressure Rain
since 9am
mm
Weather Cloud Vis
km
Sea
Height
m
Swell
Dir
 
Speed
knots
Gust
knots
hPa Trend Height
m
Period
s
Dir
24/09:00pm 12.3 WSW 5 8 1021.2 - 0.0 - - - - - - -
24/08:30pm 12.3 SW 9 12 1021.2 - 0.0 - - - - - - -
24/08:00pm 12.2 WSW 7 11 1020.9 - 0.0 - - - - - - -
24/07:30pm 12.3 SW 12 16 1020.7 - 0.0 - - - - - - -
24/07:00pm 12.4 SW 12 16 1020.4 - 0.0 - - - - - - -
24/06:30pm 12.3 SW 11 15 1019.9 - 0.0 - - - - - - -
24/06:00pm 12.5 SW 12 16 1019.4 - 0.0 - - - - - - -
24/05:30pm 12.4 SW 12 16 1019.0 - 0.0 - - - - - - -
24/05:00pm 12.5 SW 14 20 1018.7 - 0.0 - - - - - - -
24/04:30pm 12.8 SW 15 21 1018.6 - 0.0 - - - - - - -
24/04:00pm 13.7 WSW 14 21 1018.4 - 0.0 - - - - - - -
24/03:30pm 13.4 WSW 13 19 1018.3 - 0.0 - - - - - - -
24/03:00pm 13.2 WSW 15 22 1018.0 R 0.0 Distant precip. Mostly cloudy 20 2 4.0 - SW
24/02:30pm 14.3 WSW 15 21 1017.9 - 0.0 - - - - - - -
24/02:00pm 13.3 WSW 17 25 1017.6 - 0.0 - - - - - - -
24/01:30pm 14.0 WSW 17 23 1017.3 - 0.0 - - - - - - -
24/01:00pm 12.7 W 13 17 1017.5 - 0.0 - - - - - - -
24/12:45pm 12.6 W 17 27 1017.4 - 0.0 - - - - - - -
24/12:42pm 12.7 W 15 22 1017.4 - 0.0 - - - - - - -
24/12:36pm 13.0 SW 22 27 1017.3 - 0.0 - - - - - - -
24/12:30pm 13.6 W 16 23 1017.3 - 0.0 - - - - - - -
24/12:06pm 12.0 W 18 28 1017.4 - 0.0 - - - - - - -
24/12:05pm 12.0 W 18 28 1017.4 - 0.0 - - - - - - -
24/12:00pm 12.1 WSW 21 28 1017.3 - 0.0 - - - - - - -
24/11:44am 13.8 SW 21 31 1017.1 - 0.0 - - - - - - -
24/11:43am 13.8 WSW 19 31 1017.1 - 0.0 - - - - - - -
24/11:30am 13.6 W 18 25 1016.9 - 0.0 - - - - - - -
24/11:00am 12.9 WSW 21 31 1016.6 - 0.0 - - - - - - -
24/10:56am 13.0 SW 21 31 1016.5 - 0.0 - - - - - - -
24/10:55am 13.0 SW 21 31 1016.5 - 0.0 - - - - - - -
24/10:30am 13.6 WSW 21 29 1016.1 - 0.0 - - - - - - -
24/10:01am 13.4 WSW 21 31 1015.7 - 0.0 - - - - - - -
24/10:00am 13.2 WSW 21 30 1015.7 - 0.0 - - - - - - -
24/09:30am 13.4 WSW 22 33 1015.4 - 0.0 - - - - - - -
24/09:04am 13.3 WSW 22 32 1015.1 - 0.0 - - - - - - -
24/09:03am 13.3 WSW 22 32 1015.1 - 0.0 - - - - - - -
24/09:00am 13.3 WSW 23 32 1014.8 R 1.8 Fine Mostly clear 20 3 1.0 - SW
24/08:30am 13.2 WSW 27 38 1014.3 - 1.8 - - - - - - -
24/08:00am 13.3 WSW 26 36 1013.3 - 1.8 - - - - - - -
24/07:35am 13.6 WSW 25 35 1012.6 - 1.8 - - - - - - -
24/07:34am 13.6 WSW 25 35 1012.6 - 1.8 - - - - - - -
24/07:30am 13.5 WSW 26 35 1012.4 - 1.8 - - - - - - -
24/07:09am 13.6 WSW 26 38 1011.7 - 1.8 - - - - - - -
24/07:08am 13.6 WSW 26 38 1011.7 - 1.8 - - - - - - -
24/07:00am 13.7 WSW 25 34 1011.5 - 1.8 - - - - - - -
24/06:30am 13.8 WSW 22 32 1011.0 - 1.8 - - - - - - -
24/06:17am 13.7 WSW 21 31 1010.7 - 1.8 - - - - - - -
24/06:16am 13.7 WSW 21 31 1010.7 - 1.8 - - - - - - -
24/06:00am 13.3 WSW 22 31 1010.2 - 1.8 - - - - - - -
24/05:36am 12.6 WSW 21 31 1009.9 - 1.6 - - - - - - -
24/05:35am 12.6 WSW 21 31 1009.9 - 1.6 - - - - - - -
24/05:30am 12.6 WSW 24 31 1009.8 - 1.6 - - - - - - -
24/05:25am 12.7 WSW 25 31 1009.6 - 1.4 - - - - - - -
24/05:23am 13.5 W 19 34 1009.6 - 1.2 - - - - - - -
24/05:22am 13.5 W 19 34 1009.6 - 1.2 - - - - - - -
24/05:00am 13.5 W 21 29 1009.0 - 0.8 - - - - - - -
24/04:51am 13.7 W 23 33 1008.7 - 0.8 - - - - - - -
24/04:44am 13.6 W 23 36 1008.5 - 0.6 - - - - - - -
24/04:42am 13.9 W 24 40 1008.4 - 0.6 - - - - - - -
24/04:41am 14.1 W 27 33 1008.2 - 0.4 - - - - - - -
24/04:30am 14.4 NW 22 34 1007.3 - 0.0 - - - - - - -
24/04:00am 14.9 NW 19 31 1007.1 - 0.0 - - - - - - -
24/03:30am 14.8 NW 19 30 1007.0 - 0.0 - - - - - - -
24/03:00am 14.7 NW 20 32 1007.2 - 0.0 - - - - - - -
24/02:30am 14.4 NW 17 30 1007.6 - 0.0 - - - - - - -
24/02:00am 14.2 NW 16 26 1008.1 - 0.0 - - - - - - -
24/01:30am 14.5 NW 17 27 1008.4 - 0.0 - - - - - - -
24/01:00am 14.6 NW 15 28 1008.7 - 0.0 - - - - - - -
24/12:30am 14.9 NW 15 27 1009.1 - 0.0 - - - - - - -
24/12:29am 14.9 NW 15 27 1009.1 - 0.0 - - - - - - -
24/12:00am 14.7 NW 13 20 1009.5 - 0.0 - - - - - - -
 
Date/Time
EST
Temp

°C
Wind Pressure Rain
since 9am
mm
Weather Cloud Vis
km
Sea
Height
m
Swell
Dir
 
Speed
knots
Gust
knots
hPa Trend Height
m
Period
s
Dir
23/11:30pm 14.6 NW 14 22 1009.9 - 0.0 - - - - - - -
23/11:00pm 14.9 NW 13 21 1010.2 - 0.0 - - - - - - -
23/10:30pm 14.6 NW 13 19 1010.7 - 0.0 - - - - - - -
23/10:00pm 14.2 NNW 12 19 1010.9 - 0.0 - - - - - - -
23/09:30pm 13.2 N 10 15 1011.3 - 0.0 - - - - - - -
23/09:00pm 12.9 NNW 9 12 1011.4 - 0.0 - - - - - - -
23/08:30pm 13.3 N 10 13 1011.7 - 0.0 - - - - - - -
23/08:00pm 13.5 N 9 13 1011.9 - 0.0 - - - - - - -
23/07:30pm 12.5 N 7 9 1012.1 - 0.0 - - - - - - -
23/07:00pm 12.8 NNW 6 8 1012.2 - 0.0 - - - - - - -
23/06:30pm 14.0 NW 7 9 1012.3 - 0.0 - - - - - - -
23/06:00pm 14.3 WNW 8 11 1012.1 - 0.0 - - - - - - -
23/05:30pm 14.5 WNW 8 11 1012.3 - 0.0 - - - - - - -
23/05:00pm 15.2 WNW 10 15 1012.3 - 0.0 - - - - - - -
23/04:30pm 15.3 W 13 19 1012.5 - 0.0 - - - - - - -
23/04:00pm 15.7 W 13 17 1012.7 - 0.0 - - - - - - -
23/03:30pm 15.6 WNW 11 17 1012.8 - 0.0 - - - - - - -
23/03:00pm 16.1 W 13 18 1012.9 F 0.0 Fine Partly cloudy 20 2 1.0 - SW
23/02:30pm 16.0 WNW 10 16 1013.2 - 0.0 - - - - - - -
23/02:00pm 15.5 WNW 11 16 1013.6 - 0.0 - - - - - - -
23/01:30pm 15.8 WNW 11 15 1013.9 - 0.0 - - - - - - -
23/01:00pm 15.2 WNW 9 12 1014.0 - 0.0 - - - - - - -
23/12:30pm 14.4 NNW 10 16 1014.6 - 0.0 - - - - - - -
23/12:00pm 14.1 NNW 9 13 1015.3 - 0.0 - - - - - - -
23/11:30am 14.7 NNW 10 17 1015.9 - 0.0 - - - - - - -
23/11:00am 15.3 NW 8 12 1016.1 - 0.0 - - - - - - -
23/10:30am 15.0 NNW 9 15 1016.4 - 0.0 - - - - - - -
23/10:00am 14.2 NW 6 10 1016.5 - 0.0 - - - - - - -
23/09:30am 13.5 N 9 15 1016.4 - 0.0 - - - - - - -
23/09:00am 13.0 N 9 12 1016.5 R 13.6 Fine Partly cloudy 20 2 1.0 - SW
23/08:30am 12.0 N 10 13 1016.5 - 1.0 - - - - - - -
23/08:00am 10.6 N 10 12 1016.4 - 1.0 - - - - - - -
23/07:30am 10.4 N 9 13 1016.4 - 1.0 - - - - - - -
23/07:00am 10.3 NNW 10 13 1016.2 - 1.0 - - - - - - -
23/06:30am 10.1 N 10 12 1016.1 - 1.0 - - - - - - -
23/06:00am 10.1 N 9 13 1016.0 - 1.0 - - - - - - -
23/05:30am 10.1 N 10 12 1016.1 - 0.8 - - - - - - -
23/05:00am 10.0 N 9 12 1015.9 - 0.8 - - - - - - -
23/04:30am 10.0 NNW 9 10 1016.0 - 0.8 - - - - - - -
23/04:00am 9.8 N 8 9 1015.7 - 0.8 - - - - - - -
23/03:30am 9.9 N 8 10 1015.9 - 0.8 - - - - - - -
23/03:00am 10.0 NNW 9 10 1015.9 - 0.8 - - - - - - -
23/02:30am 10.1 N 9 11 1016.2 - 0.8 - - - - - - -
23/02:00am 10.2 NNW 8 10 1016.6 - 0.8 - - - - - - -
23/01:30am 10.2 NNW 8 9 1016.9 - 0.8 - - - - - - -
23/01:00am 9.9 N 9 10 1017.1 - 0.8 - - - - - - -
23/12:30am 10.0 N 9 10 1017.2 - 0.8 - - - - - - -
23/12:00am 10.7 N 7 9 1017.2 - 0.8 - - - - - - -
 
Date/Time
EST
Temp

°C
Wind Pressure Rain
since 9am
mm
Weather Cloud Vis
km
Sea
Height
m
Swell
Dir
 
Speed
knots
Gust
knots
hPa Trend Height
m
Period
s
Dir
22/11:30pm 11.9 NNW 5 7 1017.7 - 0.8 - - - - - - -
22/11:00pm 12.6 WNW 11 15 1018.0 - 0.6 - - - - - - -
22/10:30pm 10.6 N 8 9 1017.8 - 0.4 - - - - - - -
22/10:00pm 10.8 NNW 8 10 1017.8 - 0.4 - - - - - - -
22/09:30pm 11.3 NNW 8 9 1017.7 - 0.4 - - - - - - -
22/09:00pm 12.2 NNW 8 10 1017.5 - 0.4 - - - - - - -
22/08:30pm 11.9 NNW 8 9 1017.4 - 0.4 - - - - - - -
22/08:00pm 12.5 N 7 9 1017.4 - 0.4 - - - - - - -
22/07:30pm 13.9 WNW 7 10 1017.2 - 0.4 - - - - - - -
22/07:00pm 14.1 W 8 11 1016.9 - 0.4 - - - - - - -
22/06:30pm 14.1 W 9 13 1016.6 - 0.4 - - - - - - -
22/06:00pm 14.0 W 9 12 1016.2 - 0.4 - - - - - - -
22/05:30pm 14.3 W 9 12 1016.1 - 0.4 - - - - - - -
22/05:00pm 14.8 W 9 12 1015.8 - 0.4 - - - - - - -
22/04:30pm 14.9 W 8 11 1015.7 - 0.4 - - - - - - -
22/04:00pm 15.3 W 9 13 1015.4 - 0.4 - - - - - - -
22/03:30pm 15.3 W 9 14 1015.2 - 0.4 - - - - - - -
22/03:00pm 15.6 W 11 15 1015.1 R 0.4 Distant precip. Mostly cloudy 20 2 1.0 - S
22/02:30pm 15.0 W 10 13 1014.9 - 0.4 - - - - - - -
22/02:00pm 15.7 W 9 12 1014.8 - 0.4 - - - - - - -
22/01:30pm 15.4 W 10 14 1014.8 - 0.4 - - - - - - -
22/01:00pm 15.4 WSW 9 14 1015.0 - 0.4 - - - - - - -
22/12:30pm 15.4 WSW 9 13 1015.0 - 0.4 - - - - - - -
22/12:00pm 15.4 WSW 11 15 1015.1 - 0.4 - - - - - - -
22/11:30am 14.9 WSW 11 15 1015.0 - 0.4 - - - - - - -
22/11:00am 14.5 SW 12 17 1014.8 - 0.4 - - - - - - -
22/10:30am 14.2 SW 13 17 1014.6 - 0.4 - - - - - - -
22/10:00am 14.4 SW 13 19 1014.3 - 0.4 - - - - - - -
22/09:30am 14.3 WSW 13 18 1013.9 - 0.4 - - - - - - -
22/09:00am 14.9 WSW 11 17 1013.5 R 13.6 Distant precip. Mostly cloudy 20 2 1.0 - S
22/08:30am 14.3 NW 11 16 1013.3 - 13.6 - - - - - - -
22/08:00am 14.0 NW 14 36 1012.9 - 13.6 - - - - - - -
22/07:54am 14.1 NW 14 36 1012.7 - 13.6 - - - - - - -
22/07:53am 14.1 NW 14 36 1012.7 - 13.6 - - - - - - -
22/07:30am 14.0 NNW 15 25 1012.0 - 13.6 - - - - - - -
22/07:18am 14.0 NNW 17 27 1011.5 - 13.4 - - - - - - -
22/07:17am 14.0 NNW 17 27 1011.5 - 13.4 - - - - - - -
22/07:00am 14.1 NNW 18 27 1011.2 - 13.4 - - - - - - -
22/06:38am 14.6 NNW 19 29 1010.9 - 13.4 - - - - - - -
22/06:37am 14.6 NNW 18 29 1010.9 - 13.4 - - - - - - -
22/06:30am 14.5 NNW 20 28 1010.8 - 13.4 - - - - - - -
22/06:07am 14.3 NNW 17 27 1010.7 - 13.4 - - - - - - -
22/06:06am 14.3 NNW 17 27 1010.7 - 13.4 - - - - - - -
22/06:00am 14.1 NNW 16 23 1010.7 - 13.4 - - - - - - -
22/05:33am 13.7 N 16 26 1009.8 - 13.4 - - - - - - -
22/05:31am 13.8 N 16 26 1009.8 - 13.4 - - - - - - -
22/05:30am 13.9 N 17 26 1010.1 - 13.4 - - - - - - -
22/05:04am 13.5 NNW 16 26 1011.3 - 12.8 - - - - - - -
22/05:03am 13.5 NNW 16 26 1011.3 - 12.8 - - - - - - -
22/05:00am 13.4 NNW 16 22 1011.0 - 12.8 - - - - - - -
22/04:30am 12.6 N 15 23 1011.2 - 10.6 - - - - - - -
22/04:15am 12.9 NNW 16 26 1011.7 - 10.2 - - - - - - -
22/04:14am 12.9 NNW 16 26 1011.7 - 10.2 - - - - - - -
22/04:00am 13.5 NW 13 20 1011.5 - 9.6 - - - - - - -
22/03:30am 14.6 N 17 23 1010.3 - 7.6 - - - - - - -
22/03:01am 15.0 N 17 28 1010.1 - 7.6 - - - - - - -
22/03:00am 14.9 N 16 26 1009.9 - 7.6 - - - - - - -
22/02:30am 14.6 N 20 28 1009.6 - 7.6 - - - - - - -
22/02:00am 15.4 N 18 29 1009.9 - 7.6 - - - - - - -
22/01:34am 15.8 N 19 29 1010.1 - 7.6 - - - - - - -
22/01:30am 15.7 N 19 27 1010.1 - 7.6 - - - - - - -
22/01:17am 15.6 N 21 31 1009.9 - 7.6 - - - - - - -
22/01:16am 15.6 N 21 31 1009.9 - 7.6 - - - - - - -
22/01:00am 15.5 N 21 29 1010.0 - 7.6 - - - - - - -
22/12:30am 15.4 N 21 34 1010.3 - 7.6 - - - - - - -
22/12:00am 16.1 N 21 31 1009.8 - 7.4 - - - - - - -
 
Date/Time
EST
Temp

°C
Wind Pressure Rain
since 9am
mm
Weather Cloud Vis
km
Sea
Height
m
Swell
Dir
 
Speed
knots
Gust
knots
hPa Trend Height
m
Period
s
Dir
21/11:52pm 16.1 N 23 35 1009.7 - 7.4 - - - - - - -
21/11:38pm 15.8 N 15 25 1009.5 - 7.4 - - - - - - -
21/11:37pm 15.8 N 15 25 1009.5 - 7.4 - - - - - - -
21/11:30pm 15.2 N 14 20 1009.8 - 7.4 - - - - - - -
21/11:22pm 15.1 N 16 26 1009.9 - 7.4 - - - - - - -
21/11:00pm 14.8 N 19 26 1010.8 - 7.4 - - - - - - -
21/10:51pm 14.7 N 17 27 1011.0 - 7.4 - - - - - - -
21/10:50pm 14.7 N 17 27 1011.0 - 7.4 - - - - - - -
21/10:30pm 14.9 N 13 19 1012.5 - 6.6 - - - - - - -
21/10:00pm 14.8 NNW 14 20 1012.3 - 4.8 - - - - - - -
21/09:30pm 15.4 NW 13 21 1013.0 - 3.2 - - - - - - -

Other Formats:

Comma delimited format used in spreadsheet applications
http://www.bom.gov.au/fwo/IDT60701/IDT60701.94842.axf

JavaScript Object Notation format (JSON) in row-major order
http://www.bom.gov.au/fwo/IDT60701/IDT60701.94842.json